• Join FlightAware (Why Join?)
  • Login
  • US Flag 
03:03PM EDT


 

Airport Tracker/Info


-or-


 

Live Flight TrackerFlight Track Log ✈ VH-RWT ✈ 08-Sep-2013 ✈ YPJT / JAD - YPJT / JAD

Flight Track Log - Related Links

Times and Time Zones

All times are in EDT time to prevent confusion due to time zone crossing. See the VH-RWT flight status page for this flight to view local times or setup timezone preferences in your user account.

Time Position Orientation Groundspeed Altitude Reporting Facility
EDT Latitude Longitude Course Direction KTS MPH feet Rate Location/Type
11:48PM -32.1027 115.8699 267° West 62 71 400  Level Aus ATC (RADAR)
11:48PM -32.1032 115.8573 267° West 72 83 900 360 Climbing Aus ATC (RADAR)
11:49PM -32.0802 115.8462 338° Northwest 101 116 1,000 180 Climbing Aus ATC (RADAR)
11:50PM -32.0675 115.8384 333° Northwest 101 116 1,200 540 Climbing Aus ATC (RADAR)
11:50PM -32.0641 115.8231 285° West 80 92 1,600 120 Climbing Aus ATC (RADAR)
11:51PM -32.0597 115.8016 284° West 99 114 1,400 -120 Descending Aus ATC (RADAR)
11:51PM -32.0548 115.7837 288° West 96 110 1,500 60 Climbing Aus ATC (RADAR)
11:52PM -32.0468 115.7664 298° West 102 117 1,500  Level Aus ATC (RADAR)
11:53PM -32.0305 115.7599 342° North 103 119 1,500  Level Aus ATC (RADAR)
11:53PM -32.0143 115.7586 356° North 101 116 1,500  Level Aus ATC (RADAR)
11:54PM -31.9883 115.7566 356° North 99 114 1,500  Level Aus ATC (RADAR)
11:54PM -31.9906 115.7449 257° West 86 99 1,500  Level Aus ATC (RADAR)
11:55PM -32.0039 115.7453 178° South 78 90 1,500  Level Aus ATC (RADAR)
11:56PM -32.0165 115.7526 154° Southeast 79 91 1,500  Level Aus ATC (RADAR)
11:56PM -32.0078 115.7703 60° Northeast 103 119 1,500  Level Aus ATC (RADAR)
11:57PM -31.9980 115.7888 58° Northeast 111 128 1,500  Level Aus ATC (RADAR)
11:58PM -31.9868 115.8106 59° Northeast 112 129 1,500  Level Aus ATC (RADAR)
11:58PM -31.9766 115.8288 57° Northeast 114 131 1,500  Level Aus ATC (RADAR)
11:59PM -31.9657 115.8627 69° East 108 124 1,500  Level Aus ATC (RADAR)
12:00AM -31.9660 115.8770 91° East 103 119 1,500  Level Aus ATC (RADAR)
12:00AM -31.9515 115.8831 20° North 114 131 1,500 -120 Level Aus ATC (RADAR)
12:01AM -31.9399 115.8572 298° West 101 116 1,400  Descending Aus ATC (RADAR)
12:02AM -31.9316 115.8401 300° West 100 115 1,500 60 Climbing Aus ATC (RADAR)
12:02AM -31.9238 115.8158 291° West 103 119 1,500 -120 Level Aus ATC (RADAR)
12:03AM -31.9201 115.8027 289° West 100 115 1,400 -180 Descending Aus ATC (RADAR)
12:03AM -31.9180 115.7920 283° West 98 113 1,400  Level Aus ATC (RADAR)
12:06AM -32.0974 115.8812 238° Southwest 100 -420 Descending Aus ATC (Calculated)
12:08AM -32.0975 115.8811 332° Northwest  Level Estimated
12:09AM -32.0975 115.8811 184° South  Level Estimated
12:10AM -32.0975 115.8811 288° West  Level Estimated
12:11AM -32.0975 115.8811 288° West  Level Estimated
12:12AM -32.0975 115.8811 288° West  Level Estimated
12:13AM -32.0975 115.8811 288° West  Level Estimated